Time;durP1;ratioP1;P1;durP2;ratioP2;P2;SDS_P1;SDS_P2;PMS_P1;PMS_P2;Temp;Humidity;BMP_temperature;BMP_pressure;BME280_temperature;BME280_humidity;BME280_pressure;Samples;Min_cycle;Max_cycle;Signal;HPM_P1;HPM_P2
2023/01/23 00:02:16;;;;;;;;;9.00;9.00;;;;;2.39;84.22;101574.50;5095244;28;8836;-61
2023/01/23 00:04:44;;;;;;;;;7.20;6.00;;;;;2.37;83.95;101576.28;5094809;28;8879;-61
2023/01/23 00:07:12;;;;;;;;;10.60;8.20;;;;;2.38;84.67;101578.03;5094968;28;8848;-61
2023/01/23 00:09:40;;;;;;;;;4.80;4.00;;;;;2.36;84.37;101575.41;5095186;28;9539;-61
2023/01/23 00:12:07;;;;;;;;;6.00;6.00;;;;;2.37;84.49;101574.56;5094981;28;8839;-61
2023/01/23 00:14:35;;;;;;;;;9.80;9.00;;;;;2.36;84.37;101570.16;5095654;28;8826;-60
2023/01/23 00:17:03;;;;;;;;;11.20;10.80;;;;;2.36;83.74;101564.91;5095180;28;8840;-62
2023/01/23 00:19:31;;;;;;;;;8.00;6.60;;;;;2.37;84.15;101577.19;5095671;28;8844;-60
2023/01/23 00:21:59;;;;;;;;;6.40;6.40;;;;;2.37;84.45;101571.91;5095617;28;9534;-60
2023/01/23 00:24:27;;;;;;;;;10.80;9.20;;;;;2.39;84.20;101574.50;5095332;28;8853;-59
2023/01/23 00:26:54;;;;;;;;;6.80;6.80;;;;;2.37;84.82;101571.03;5095353;28;8822;-61
2023/01/23 00:29:24;;;;;;;;;11.40;9.20;;;;;2.36;84.20;101574.56;5095116;28;8830;-59
2023/01/23 00:31:52;;;;;;;;;8.20;7.40;;;;;2.35;84.37;101571.06;5094852;28;8844;-59
2023/01/23 00:34:19;;;;;;;;;8.60;8.20;;;;;2.36;84.28;101569.31;5095105;28;8819;-60
2023/01/23 00:36:47;;;;;;;;;8.20;7.80;;;;;2.36;84.65;101572.78;5094610;28;8822;-59
2023/01/23 00:39:15;;;;;;;;;9.80;9.80;;;;;2.36;84.70;101569.31;5094833;28;8832;-59
2023/01/23 00:41:43;;;;;;;;;9.80;9.60;;;;;2.35;84.25;101573.69;5094485;28;8842;-59
2023/01/23 00:44:11;;;;;;;;;7.40;6.20;;;;;2.37;84.42;101578.91;5095325;28;8849;-59
2023/01/23 00:46:38;;;;;;;;;9.20;8.20;;;;;2.37;84.06;101582.44;5099420;28;8825;-61
2023/01/23 00:49:06;;;;;;;;;12.40;10.80;;;;;2.38;84.13;101584.16;5099673;28;8825;-60
2023/01/23 00:51:34;;;;;;;;;6.00;2.60;;;;;2.40;84.16;101586.72;5099655;28;8842;-61
2023/01/23 00:54:02;;;;;;;;;12.00;11.60;;;;;2.39;83.96;101583.25;5099079;28;9527;-61
2023/01/23 00:56:29;;;;;;;;;6.20;6.00;;;;;2.38;84.61;101578.03;5099164;28;8841;-62
2023/01/23 00:58:57;;;;;;;;;8.00;7.40;;;;;2.37;84.80;101585.06;5098924;28;8806;-61
2023/01/23 01:01:25;;;;;;;;;9.20;9.00;;;;;2.37;83.98;101595.56;5099419;28;8818;-60
2023/01/23 01:03:52;;;;;;;;;9.40;8.40;;;;;2.38;84.13;101592.03;5099239;28;8857;-60
2023/01/23 01:06:20;;;;;;;;;7.80;7.40;;;;;2.39;84.42;101598.16;5099399;28;8856;-60
2023/01/23 01:08:48;;;;;;;;;9.80;8.60;;;;;2.37;83.88;101592.94;5098965;28;8869;-62
2023/01/23 01:11:16;;;;;;;;;7.00;6.00;;;;;2.37;83.94;101592.94;5099197;28;8826;-60
2023/01/23 01:13:44;;;;;;;;;9.20;8.60;;;;;2.36;84.41;101606.94;5098976;28;8890;-62
2023/01/23 01:16:11;;;;;;;;;11.40;9.80;;;;;2.37;84.71;101603.44;5098774;28;8861;-60
2023/01/23 01:18:39;;;;;;;;;12.20;11.40;;;;;2.37;83.81;101610.47;5098804;28;8873;-61
2023/01/23 01:21:07;;;;;;;;;7.40;7.00;;;;;2.36;83.98;101606.94;5099388;28;8838;-61
2023/01/23 01:23:35;;;;;;;;;8.60;8.40;;;;;2.35;84.00;101602.59;5098809;28;8844;-61
2023/01/23 01:26:03;;;;;;;;;9.60;6.40;;;;;2.34;84.83;101607.91;5098787;28;8834;-60
2023/01/23 01:28:31;;;;;;;;;12.80;12.00;;;;;2.32;84.52;101600.03;5098112;28;8845;-60
2023/01/23 01:30:59;;;;;;;;;13.60;10.00;;;;;2.29;84.67;101594.81;5098867;28;8885;-59
2023/01/23 01:33:28;;;;;;;;;5.20;5.20;;;;;2.26;84.48;101594.91;5098683;28;8826;-61
2023/01/23 01:35:56;;;;;;;;;7.40;7.20;;;;;2.22;84.54;101588.00;5097459;28;8822;-61
2023/01/23 01:38:23;;;;;;;;;11.40;8.00;;;;;2.19;84.45;101587.19;5098495;28;8842;-61
2023/01/23 01:40:51;;;;;;;;;7.80;7.80;;;;;2.18;84.86;101596.81;5098658;28;8826;-61
2023/01/23 01:43:19;;;;;;;;;7.60;7.60;;;;;2.16;85.05;101593.34;5098668;28;8830;-61
2023/01/23 01:45:47;;;;;;;;;9.00;7.80;;;;;2.15;84.53;101591.63;5098633;28;8842;-62
2023/01/23 01:48:15;;;;;;;;;9.80;9.80;;;;;2.14;84.65;101599.53;5098607;28;8829;-61
2023/01/23 01:50:42;;;;;;;;;7.80;7.80;;;;;2.12;85.00;101601.34;5098907;28;8858;-61
2023/01/23 01:53:10;;;;;;;;;7.40;6.00;;;;;2.10;84.67;101603.97;5098468;28;8814;-61
2023/01/23 01:55:39;;;;;;;;;3.60;3.20;;;;;2.12;84.96;101614.47;5097780;28;8815;-61
2023/01/23 01:58:07;;;;;;;;;13.80;12.40;;;;;2.14;85.44;101615.28;5098282;28;8841;-61
2023/01/23 02:00:34;;;;;;;;;7.40;6.40;;;;;2.15;84.74;101625.78;5098104;28;8880;-60
2023/01/23 02:03:02;;;;;;;;;7.80;7.80;;;;;2.16;84.74;101624.88;5097746;28;8826;-61
2023/01/23 02:05:30;;;;;;;;;7.20;7.20;;;;;2.19;84.46;101623.97;5098159;28;8841;-59
2023/01/23 02:07:58;;;;;;;;;8.40;8.40;;;;;2.21;84.50;101622.16;5097746;28;9570;-61
2023/01/23 02:10:26;;;;;;;;;9.40;9.40;;;;;2.24;84.90;101633.47;5097672;28;8818;-61
2023/01/23 02:12:53;;;;;;;;;9.60;9.60;;;;;2.25;84.33;101631.72;5097346;28;8838;-60
2023/01/23 02:15:21;;;;;;;;;11.40;8.80;;;;;2.25;84.74;101632.59;5098190;28;8822;-61
2023/01/23 02:17:49;;;;;;;;;6.40;5.60;;;;;2.26;84.35;101625.59;5098357;28;8846;-60
2023/01/23 02:20:17;;;;;;;;;4.00;3.00;;;;;2.26;84.79;101621.19;5098257;28;8818;-61
2023/01/23 02:22:45;;;;;;;;;10.20;7.00;;;;;2.27;84.16;101635.19;5097900;28;8904;-62
2023/01/23 02:25:13;;;;;;;;;10.80;6.60;;;;;2.28;84.29;101629.88;5097313;28;8806;-61
2023/01/23 02:27:40;;;;;;;;;2.40;1.60;;;;;2.29;84.43;101629.00;5097660;28;8814;-61
2023/01/23 02:30:08;;;;;;;;;5.80;4.40;;;;;2.30;84.22;101627.25;5097791;28;9654;-61
2023/01/23 02:32:36;;;;;;;;;7.40;3.80;;;;;2.31;84.60;101629.84;5098097;28;9526;-61
2023/01/23 02:35:04;;;;;;;;;5.60;5.60;;;;;2.33;84.36;101640.31;5097701;28;8911;-61
2023/01/23 02:37:33;;;;;;;;;10.00;7.80;;;;;2.32;84.72;101626.31;5095496;28;8799;-61
2023/01/23 02:40:02;;;;;;;;;7.80;6.60;;;;;2.36;84.72;101635.00;5079046;28;8804;-60
2023/01/23 02:42:30;;;;;;;;;6.40;6.00;;;;;2.36;84.91;101637.63;5077696;28;8817;-60
2023/01/23 02:44:58;;;;;;;;;11.20;9.80;;;;;2.37;84.34;101635.00;5077162;28;8820;-60
2023/01/23 02:47:26;;;;;;;;;10.80;9.00;;;;;2.37;84.20;101640.25;5077456;28;8847;-61
2023/01/23 02:49:53;;;;;;;;;7.00;6.00;;;;;2.37;84.26;101642.88;5077278;28;8875;-60
2023/01/23 02:52:21;;;;;;;;;6.40;4.20;;;;;2.36;84.21;101643.75;5077053;28;8864;-62
2023/01/23 02:54:48;;;;;;;;;10.60;9.60;;;;;2.36;84.57;101649.00;5080398;28;8818;-60
2023/01/23 02:57:16;;;;;;;;;9.40;7.00;;;;;2.36;84.20;101648.16;5077385;28;8843;-60
2023/01/23 03:02:29;;;;;;;;;10.80;9.20;;;;;2.37;84.67;101653.38;5077054;28;8832;-61
2023/01/23 03:04:57;;;;;;;;;3.80;3.80;;;;;2.38;84.18;101662.13;5077223;28;8845;-60
2023/01/23 03:07:25;;;;;;;;;12.40;10.40;;;;;2.39;84.31;101659.47;5075921;28;8844;-61
2023/01/23 03:09:52;;;;;;;;;8.20;6.60;;;;;2.39;84.25;101664.72;5076427;28;8828;-60
2023/01/23 03:12:20;;;;;;;;;6.00;3.80;;;;;2.40;84.08;101661.19;5077101;28;8844;-61
2023/01/23 03:14:52;;;;;;;;;6.00;6.00;;;;;2.40;84.13;101653.31;5076452;28;8835;-60
2023/01/23 03:17:20;;;;;;;;;9.00;7.80;;;;;2.41;84.76;101649.78;5076577;28;9548;-59
2023/01/23 03:19:48;;;;;;;;;7.20;6.20;;;;;2.42;84.62;101641.00;5076491;28;8824;-58
2023/01/23 03:22:15;;;;;;;;;10.40;9.80;;;;;2.42;84.54;101645.41;5076698;28;8852;-61
2023/01/23 03:24:43;;;;;;;;;4.00;4.00;;;;;2.41;84.25;101636.66;5078664;28;8861;-61
2023/01/23 03:27:11;;;;;;;;;9.80;7.80;;;;;2.40;83.96;101640.19;5096823;28;9523;-61
2023/01/23 03:32:24;;;;;;;;;5.60;5.60;;;;;2.43;84.09;101649.78;5096492;28;8845;-61
2023/01/23 03:34:52;;;;;;;;;7.00;5.20;;;;;2.43;84.09;101650.63;5096823;28;8834;-61
2023/01/23 03:37:20;;;;;;;;;7.40;7.00;;;;;2.43;84.66;101645.38;5096819;28;8888;-60
2023/01/23 03:42:35;;;;;;;;;14.60;11.80;;;;;2.43;84.93;101649.78;5096435;28;8842;-61
2023/01/23 03:45:02;;;;;;;;;5.60;5.60;;;;;2.42;84.72;101646.25;5096528;28;8865;-60
2023/01/23 03:47:30;;;;;;;;;5.20;4.00;;;;;2.41;84.86;101641.91;5096537;28;8818;-61
2023/01/23 03:49:57;;;;;;;;;9.20;9.20;;;;;2.41;84.32;101649.78;5096447;28;9520;-61
2023/01/23 03:52:25;;;;;;;;;10.80;10.00;;;;;2.42;84.44;101651.53;5096437;28;8826;-59
2023/01/23 03:54:53;;;;;;;;;9.00;9.00;;;;;2.41;84.33;101652.41;5095680;28;8884;-61
2023/01/23 03:57:21;;;;;;;;;9.60;8.20;;;;;2.42;84.72;101646.25;5096065;28;8865;-60
2023/01/23 03:59:49;;;;;;;;;5.60;4.80;;;;;2.41;84.63;101649.78;5096289;28;8806;-61
2023/01/23 04:02:17;;;;;;;;;4.00;4.00;;;;;2.41;84.55;101649.78;5096080;28;8865;-61
2023/01/23 04:04:44;;;;;;;;;7.80;6.40;;;;;2.41;84.77;101651.56;5095747;28;8907;-61
2023/01/23 04:07:12;;;;;;;;;9.60;9.20;;;;;2.40;84.95;101647.19;5096063;28;8849;-59
2023/01/23 04:09:40;;;;;;;;;8.60;7.00;;;;;2.39;84.85;101648.97;5096311;28;8822;-60
2023/01/23 04:12:07;;;;;;;;;7.80;7.00;;;;;2.39;84.41;101640.19;5096308;28;8818;-61
2023/01/23 04:14:36;;;;;;;;;10.00;9.40;;;;;2.38;85.01;101644.59;5096048;28;8844;-61
2023/01/23 04:17:04;;;;;;;;;6.00;4.00;;;;;2.39;84.93;101642.81;5096311;28;8833;-60
2023/01/23 04:19:32;;;;;;;;;8.20;7.00;;;;;2.40;84.89;101642.81;5096010;28;8968;-58
2023/01/23 04:21:59;;;;;;;;;8.60;8.60;;;;;2.41;84.39;101641.91;5096023;28;8838;-61
2023/01/23 04:24:27;;;;;;;;;6.00;5.60;;;;;2.41;84.36;101644.53;5095520;28;8826;-61
2023/01/23 04:26:55;;;;;;;;;12.80;12.00;;;;;2.42;84.71;101645.41;5095635;28;8822;-62
2023/01/23 04:29:22;;;;;;;;;10.00;9.00;;;;;2.41;84.54;101644.53;5095397;28;8834;-61
2023/01/23 04:31:51;;;;;;;;;6.80;6.20;;;;;2.40;84.20;101649.81;5095042;28;8814;-61
2023/01/23 04:34:18;;;;;;;;;8.20;6.60;;;;;2.41;84.92;101656.81;5094929;28;8829;-59
2023/01/23 04:36:46;;;;;;;;;6.20;4.00;;;;;2.41;84.71;101651.56;5095807;28;9499;-61
2023/01/23 04:39:13;;;;;;;;;9.20;9.00;;;;;2.41;84.90;101657.69;5095564;28;8844;-61
2023/01/23 04:41:41;;;;;;;;;11.60;10.00;;;;;2.43;84.97;101655.03;5095159;28;8865;-61
2023/01/23 04:44:21;;;;;;;;;8.60;7.60;;;;;2.43;84.52;101655.03;5095454;28;8818;-60
2023/01/23 04:46:49;;;;;;;;;7.40;6.40;;;;;2.42;84.95;101651.53;5094982;28;8838;-61
2023/01/23 04:49:17;;;;;;;;;14.20;12.00;;;;;2.42;84.67;101654.16;5094846;28;8837;-60
2023/01/23 04:51:46;;;;;;;;;11.60;9.40;;;;;2.42;84.88;101651.53;5094776;28;8854;-61
2023/01/23 04:54:14;;;;;;;;;7.40;6.40;;;;;2.42;84.83;101654.16;5094079;28;8818;-60
2023/01/23 04:56:42;;;;;;;;;6.60;6.40;;;;;2.43;84.49;101655.03;5093449;28;8850;-61
2023/01/23 04:59:10;;;;;;;;;9.60;9.40;;;;;2.43;84.51;101661.13;5094219;28;8822;-61
2023/01/23 05:01:37;;;;;;;;;4.80;4.80;;;;;2.42;85.04;101662.03;5094553;28;8826;-61
2023/01/23 05:04:05;;;;;;;;;12.80;10.00;;;;;2.42;84.75;101669.91;5094765;28;9532;-61
2023/01/23 05:06:33;;;;;;;;;8.00;7.80;;;;;2.43;84.26;101660.28;5094358;28;8830;-61
2023/01/23 05:09:01;;;;;;;;;6.20;5.60;;;;;2.43;84.26;101658.50;5094384;28;8846;-62
2023/01/23 05:11:29;;;;;;;;;6.80;6.80;;;;;2.43;85.05;101658.50;5093950;28;8911;-60
2023/01/23 05:13:56;;;;;;;;;11.20;9.00;;;;;2.42;84.39;101654.16;5094412;28;8841;-61
2023/01/23 05:16:24;;;;;;;;;11.00;10.80;;;;;2.43;84.99;101658.50;5094634;28;8968;-61
2023/01/23 05:18:52;;;;;;;;;9.40;8.20;;;;;2.43;84.88;101653.25;5094936;28;8853;-62
2023/01/23 05:21:20;;;;;;;;;14.60;12.80;;;;;2.43;84.88;101652.41;5094889;28;8878;-59
2023/01/23 05:23:47;;;;;;;;;11.20;9.40;;;;;2.44;85.10;101648.88;5095089;28;8852;-61
2023/01/23 05:26:15;;;;;;;;;11.80;11.20;;;;;2.43;84.75;101645.38;5094714;28;8826;-61
2023/01/23 05:28:43;;;;;;;;;6.60;5.80;;;;;2.44;84.93;101646.25;5094909;28;8841;-60
2023/01/23 05:31:11;;;;;;;;;9.60;8.20;;;;;2.43;84.54;101655.88;5096645;28;8842;-61
2023/01/23 05:33:39;;;;;;;;;9.20;7.00;;;;;2.44;84.74;101651.50;5099104;28;8915;-60
2023/01/23 05:36:06;;;;;;;;;9.80;9.40;;;;;2.43;84.89;101650.63;5099084;28;8822;-61
2023/01/23 05:38:34;;;;;;;;;12.60;9.80;;;;;2.44;84.98;101651.50;5098757;28;8806;-60
2023/01/23 05:41:02;;;;;;;;;6.00;4.00;;;;;2.44;84.15;101649.72;5098853;28;8841;-62
2023/01/23 05:43:30;;;;;;;;;10.00;10.00;;;;;2.45;84.43;101655.84;5098669;28;8817;-61
2023/01/23 05:45:58;;;;;;;;;10.40;8.20;;;;;2.46;84.42;101665.47;5098507;28;8822;-61
2023/01/23 05:48:25;;;;;;;;;6.40;6.20;;;;;2.45;85.11;101664.63;5098315;28;8879;-60
2023/01/23 05:50:53;;;;;;;;;2.60;1.40;;;;;2.44;84.57;101657.59;5098453;28;8878;-60
2023/01/23 05:53:21;;;;;;;;;6.60;6.60;;;;;2.45;84.39;101661.13;5098367;28;9626;-60
2023/01/23 05:55:49;;;;;;;;;7.80;6.40;;;;;2.44;84.52;101665.50;5098339;28;8826;-61
2023/01/23 05:58:16;;;;;;;;;6.40;6.20;;;;;2.45;84.53;101677.75;5098532;28;8852;-61
2023/01/23 06:00:44;;;;;;;;;6.40;6.40;;;;;2.46;84.23;101682.13;5098072;28;8839;-58
2023/01/23 06:03:12;;;;;;;;;6.20;6.00;;;;;2.46;85.05;101679.50;5097970;28;8856;-61
2023/01/23 06:05:39;;;;;;;;;7.00;6.00;;;;;2.46;84.65;101671.59;5097968;28;8841;-61
2023/01/23 06:08:07;;;;;;;;;11.20;7.80;;;;;2.46;84.93;101682.13;5097220;28;8806;-62
2023/01/23 06:10:37;;;;;;;;;9.60;9.00;;;;;2.47;84.71;101675.09;5096981;28;8826;-60
2023/01/23 06:13:05;;;;;;;;;8.20;6.80;;;;;2.48;85.01;101675.06;5097091;28;8830;-60
2023/01/23 06:15:32;;;;;;;;;12.40;10.00;;;;;2.50;84.81;101680.31;5097046;28;8837;-60
2023/01/23 06:18:00;;;;;;;;;6.80;6.80;;;;;2.49;84.52;101687.31;5097060;28;8838;-61
2023/01/23 06:20:28;;;;;;;;;6.60;6.60;;;;;2.49;84.72;101696.97;5096396;28;8826;-60
2023/01/23 06:22:56;;;;;;;;;7.60;6.40;;;;;2.49;84.18;101697.81;5095748;28;8822;-61
2023/01/23 06:25:24;;;;;;;;;7.00;5.60;;;;;2.49;84.32;101703.06;5096088;28;8868;-62
2023/01/23 06:27:51;;;;;;;;;7.00;6.00;;;;;2.50;85.04;101703.97;5095877;28;8830;-61
2023/01/23 06:30:21;;;;;;;;;8.20;7.00;;;;;2.51;84.93;101703.06;5095239;28;8830;-61
2023/01/23 06:32:50;;;;;;;;;9.20;8.20;;;;;2.51;84.68;101703.06;5094931;28;8848;-60
2023/01/23 06:35:18;;;;;;;;;6.80;6.60;;;;;2.51;84.99;101708.31;5094263;28;8818;-60
2023/01/23 06:37:46;;;;;;;;;12.60;9.20;;;;;2.50;84.49;101710.06;5094484;28;8845;-58
2023/01/23 06:40:13;;;;;;;;;9.80;8.20;;;;;2.51;84.52;101705.69;5094318;28;8830;-61
2023/01/23 06:42:41;;;;;;;;;3.60;3.40;;;;;2.51;85.09;101719.69;5093758;28;8853;-61
2023/01/23 06:45:09;;;;;;;;;8.60;7.00;;;;;2.52;84.39;101724.06;5094135;28;8830;-61
2023/01/23 06:47:37;;;;;;;;;9.40;7.80;;;;;2.51;84.50;101716.19;5094264;28;9506;-61
2023/01/23 06:50:05;;;;;;;;;9.00;7.40;;;;;2.51;84.90;101726.72;5094755;28;8844;-61
2023/01/23 06:52:32;;;;;;;;;9.40;9.20;;;;;2.50;84.42;101725.84;5094311;28;8810;-59
2023/01/23 06:55:00;;;;;;;;;6.00;3.40;;;;;2.49;84.86;101729.38;5095086;28;8849;-58
2023/01/23 06:57:28;;;;;;;;;1.40;1.40;;;;;2.49;84.63;101729.38;5095482;28;8838;-59
2023/01/23 06:59:56;;;;;;;;;2.60;2.60;;;;;2.49;84.23;101737.25;5094993;28;9569;-59
2023/01/23 07:02:24;;;;;;;;;6.20;6.20;;;;;2.49;84.29;101745.13;5093737;28;8798;-60
2023/01/23 07:04:51;;;;;;;;;6.80;6.20;;;;;2.49;84.11;101739.88;5094367;28;8830;-58
2023/01/23 07:07:21;;;;;;;;;7.80;7.80;;;;;2.51;84.92;101742.50;5093821;28;8833;-60
2023/01/23 07:09:49;;;;;;;;;6.40;5.00;;;;;2.50;84.49;101744.25;5092438;28;8838;-60
2023/01/23 07:12:17;;;;;;;;;5.60;3.80;;;;;2.51;84.30;101748.59;5092831;28;8985;-61
2023/01/23 07:14:44;;;;;;;;;9.20;9.20;;;;;2.50;84.27;101752.13;5091064;28;8818;-61
2023/01/23 07:17:12;;;;;;;;;10.40;8.20;;;;;2.50;84.95;101754.75;5092448;28;8851;-60
2023/01/23 07:19:40;;;;;;;;;9.20;7.40;;;;;2.50;84.90;101761.78;5092206;28;8850;-61
2023/01/23 07:22:08;;;;;;;;;12.40;9.40;;;;;2.51;84.61;101758.25;5092709;28;8873;-61
2023/01/23 07:24:36;;;;;;;;;9.00;6.00;;;;;2.50;84.60;101774.94;5093587;28;8931;-59
2023/01/23 07:27:03;;;;;;;;;7.60;5.60;;;;;2.49;84.90;101771.44;5093011;28;8855;-62
2023/01/23 07:29:31;;;;;;;;;9.20;8.60;;;;;2.51;85.01;101789.81;5093714;28;8825;-60
2023/01/23 07:32:00;;;;;;;;;12.40;10.60;;;;;2.51;84.52;101784.56;5094140;28;8872;-61
2023/01/23 07:34:28;;;;;;;;;11.80;9.60;;;;;2.51;84.63;101780.16;5093697;28;8829;-61
2023/01/23 07:36:59;;;;;;;;;10.80;9.80;;;;;2.53;84.66;101788.91;5093957;28;8993;-61
2023/01/23 07:39:26;;;;;;;;;10.80;10.80;;;;;2.54;84.51;101793.25;5094390;28;8861;-59
2023/01/23 07:41:54;;;;;;;;;11.80;10.80;;;;;2.55;84.48;101797.63;5094459;28;8830;-59
2023/01/23 07:44:22;;;;;;;;;10.80;10.20;;;;;2.56;84.60;101790.59;5093382;28;8889;-59
2023/01/23 07:46:50;;;;;;;;;10.00;10.00;;;;;2.56;84.52;101791.47;5093673;28;8841;-61
2023/01/23 07:49:18;;;;;;;;;11.60;11.20;;;;;2.58;84.21;101796.69;5094117;28;8834;-61
2023/01/23 07:51:46;;;;;;;;;4.60;3.40;;;;;2.58;84.99;101791.44;5093749;28;8870;-61
2023/01/23 07:54:13;;;;;;;;;12.20;9.40;;;;;2.59;84.90;101794.03;5093700;28;8810;-60
2023/01/23 07:56:41;;;;;;;;;12.00;10.40;;;;;2.59;85.16;101787.91;5094295;28;8852;-60
2023/01/23 07:59:09;;;;;;;;;12.80;12.00;;;;;2.60;84.51;101795.78;5093879;28;8834;-61
2023/01/23 08:01:38;;;;;;;;;12.40;12.40;;;;;2.61;84.79;101792.25;5093087;28;8950;-61
2023/01/23 08:04:06;;;;;;;;;6.60;5.80;;;;;2.61;84.81;101805.41;5093161;28;8850;-60
2023/01/23 08:06:34;;;;;;;;;8.20;7.40;;;;;2.64;84.88;101801.84;5092989;28;8865;-60
2023/01/23 08:09:02;;;;;;;;;15.60;13.80;;;;;2.64;84.36;101809.75;5093211;28;8981;-62
2023/01/23 08:11:30;;;;;;;;;9.20;7.00;;;;;2.65;84.80;101809.69;5092518;28;8834;-60
2023/01/23 08:14:00;;;;;;;;;9.00;9.00;;;;;2.66;84.86;101806.16;5092159;28;8919;-59
2023/01/23 08:16:28;;;;;;;;;11.60;9.80;;;;;2.69;84.90;101814.03;5092218;28;8915;-60
2023/01/23 08:18:56;;;;;;;;;7.80;6.60;;;;;2.71;84.02;101811.34;5092490;28;8923;-60
2023/01/23 08:21:24;;;;;;;;;9.80;7.80;;;;;2.72;84.21;101816.59;5092885;28;8861;-61
2023/01/23 08:23:52;;;;;;;;;12.60;12.00;;;;;2.73;84.48;101807.78;5094386;28;8826;-60
2023/01/23 08:26:20;;;;;;;;;9.00;9.00;;;;;2.75;84.50;101806.03;5092942;28;8838;-60
2023/01/23 08:28:48;;;;;;;;;9.80;9.00;;;;;2.77;84.84;101808.59;5091645;28;8834;-59
2023/01/23 08:31:16;;;;;;;;;9.80;9.40;;;;;2.78;83.91;101808.59;5091961;28;8892;-61
2023/01/23 08:33:44;;;;;;;;;6.60;5.40;;;;;2.79;84.05;101802.44;5091378;28;9523;-61
2023/01/23 08:36:12;;;;;;;;;8.20;7.80;;;;;2.81;84.38;101805.03;5091397;28;8834;-61
2023/01/23 08:38:41;;;;;;;;;9.60;9.60;;;;;2.81;84.28;101813.78;5091431;28;8838;-59
2023/01/23 08:41:10;;;;;;;;;11.00;8.60;;;;;2.82;84.62;101806.78;5092164;28;8868;-59
2023/01/23 08:43:40;;;;;;;;;9.80;9.20;;;;;2.84;84.02;101812.88;5092526;28;8845;-60
2023/01/23 08:46:08;;;;;;;;;7.80;6.20;;;;;2.86;84.49;101803.16;5093238;28;8850;-59
2023/01/23 08:48:36;;;;;;;;;9.40;7.40;;;;;2.88;84.10;101806.66;5093907;28;8826;-59
2023/01/23 08:51:04;;;;;;;;;8.60;7.80;;;;;2.90;84.27;101816.28;5093670;28;8838;-59
2023/01/23 08:53:32;;;;;;;;;9.40;9.00;;;;;2.94;84.52;101817.94;5093236;28;8852;-59
2023/01/23 08:56:01;;;;;;;;;11.60;9.60;;;;;2.95;84.37;101814.41;5093058;28;8915;-59
2023/01/23 08:58:28;;;;;;;;;6.80;6.80;;;;;2.98;83.74;101814.34;5093517;28;8833;-61
2023/01/23 09:00:57;;;;;;;;;8.00;7.40;;;;;2.99;84.10;101818.72;5093048;28;8969;-59
2023/01/23 09:03:26;;;;;;;;;9.00;7.20;;;;;3.04;84.07;101808.09;5092733;28;8834;-59
2023/01/23 09:05:54;;;;;;;;;6.40;6.40;;;;;3.07;84.41;101816.81;5093711;28;8834;-61
2023/01/23 09:08:22;;;;;;;;;8.80;6.00;;;;;3.12;84.15;101807.06;5095881;28;9562;-61
2023/01/23 09:10:50;;;;;;;;;8.60;8.60;;;;;3.18;83.70;101806.94;5096569;28;8834;-59
2023/01/23 09:13:19;;;;;;;;;10.60;8.60;;;;;3.22;84.08;101803.34;5096009;28;8957;-61
2023/01/23 09:15:47;;;;;;;;;8.20;8.20;;;;;3.27;83.85;101811.16;5095030;28;8866;-58
2023/01/23 09:18:15;;;;;;;;;11.80;8.80;;;;;3.29;83.53;101804.97;5095359;28;8846;-59
2023/01/23 09:20:43;;;;;;;;;7.20;6.60;;;;;3.34;83.37;101812.75;5095368;28;8848;-59
2023/01/23 09:23:11;;;;;;;;;10.00;9.00;;;;;3.36;83.32;101821.50;5095314;28;8856;-59
2023/01/23 09:25:39;;;;;;;;;6.00;4.40;;;;;3.36;83.23;101817.09;5095671;28;8830;-59
2023/01/23 09:28:07;;;;;;;;;5.60;5.20;;;;;3.38;83.65;101827.59;5094226;28;9259;-62
2023/01/23 09:30:35;;;;;;;;;9.00;7.40;;;;;3.40;83.49;101823.19;5094455;28;8834;-61
2023/01/23 09:33:03;;;;;;;;;4.40;3.60;;;;;3.42;83.31;101822.22;5094914;28;8854;-60
2023/01/23 09:35:31;;;;;;;;;9.00;7.00;;;;;3.47;83.73;101824.78;5095288;28;8822;-59
2023/01/23 09:37:59;;;;;;;;;8.20;7.00;;;;;3.50;83.01;101829.97;5095529;28;8856;-61
2023/01/23 09:40:27;;;;;;;;;11.60;9.00;;;;;3.52;83.29;101833.44;5095741;28;8834;-61
2023/01/23 09:42:55;;;;;;;;;5.00;3.20;;;;;3.54;83.04;101832.50;5095068;28;8841;-62
2023/01/23 09:45:23;;;;;;;;;4.40;4.00;;;;;3.58;83.17;101850.00;5094900;28;8826;-59
2023/01/23 09:47:51;;;;;;;;;12.80;10.00;;;;;3.60;83.25;101842.91;5094082;28;8837;-61
2023/01/23 09:50:20;;;;;;;;;6.20;4.00;;;;;3.61;83.00;101846.41;5094690;28;9645;-60
2023/01/23 09:52:48;;;;;;;;;9.20;7.40;;;;;3.59;83.15;101848.22;5095940;28;8833;-61
2023/01/23 09:55:16;;;;;;;;;8.20;7.00;;;;;3.58;82.87;101857.91;5095707;28;8826;-61
2023/01/23 09:57:45;;;;;;;;;8.20;7.40;;;;;3.55;83.07;101852.69;5095106;28;8830;-60
2023/01/23 10:00:13;;;;;;;;;9.60;9.60;;;;;3.54;83.00;101853.56;5094657;28;8837;-60
2023/01/23 10:02:42;;;;;;;;;9.60;8.20;;;;;3.52;83.02;101851.88;5093904;28;9243;-61
2023/01/23 10:05:12;;;;;;;;;7.00;7.00;;;;;3.52;83.75;101852.75;5093612;28;8984;-61
2023/01/23 10:07:41;;;;;;;;;8.60;7.80;;;;;3.53;83.45;101862.38;5093757;28;8854;-61
2023/01/23 10:10:09;;;;;;;;;8.60;6.80;;;;;3.52;83.29;101865.03;5093863;28;8841;-61
2023/01/23 10:12:37;;;;;;;;;6.20;6.00;;;;;3.52;83.04;101854.50;5093804;28;8868;-59
2023/01/23 10:15:06;;;;;;;;;5.40;4.20;;;;;3.52;82.72;101860.66;5092387;28;8841;-61
2023/01/23 10:17:35;;;;;;;;;7.80;6.60;;;;;3.54;83.54;101865.91;5092250;28;8842;-61
2023/01/23 10:20:03;;;;;;;;;8.20;6.60;;;;;3.57;82.96;101868.44;5092751;28;8850;-61
2023/01/23 10:22:32;;;;;;;;;4.00;4.00;;;;;3.60;83.16;101863.13;5093239;28;8848;-59
2023/01/23 10:25:00;;;;;;;;;12.20;9.20;;;;;3.58;83.10;101864.91;5093197;28;8865;-59
2023/01/23 10:27:28;;;;;;;;;9.80;8.60;;;;;3.58;83.04;101870.19;5091608;28;8834;-60
2023/01/23 10:29:56;;;;;;;;;8.60;7.40;;;;;3.58;82.99;101859.66;5093049;28;9503;-62
2023/01/23 10:32:25;;;;;;;;;9.40;7.60;;;;;3.60;83.51;101860.47;5092944;28;8872;-60
2023/01/23 10:34:53;;;;;;;;;11.60;9.60;;;;;3.63;83.01;101863.06;5092673;28;9496;-61
2023/01/23 10:37:21;;;;;;;;;9.80;9.80;;;;;3.65;83.08;101854.25;5091191;28;8864;-61
2023/01/23 10:39:50;;;;;;;;;10.20;9.20;;;;;3.67;82.69;101853.28;5091958;28;8923;-61
2023/01/23 10:42:18;;;;;;;;;9.40;9.00;;;;;3.84;82.88;101853.81;5092658;28;8922;-61
2023/01/23 10:44:46;;;;;;;;;8.60;7.40;;;;;4.06;82.35;101838.38;5092184;28;8964;-61
2023/01/23 10:47:14;;;;;;;;;11.20;9.00;;;;;4.37;81.70;101842.03;5091668;28;8853;-62
2023/01/23 10:49:42;;;;;;;;;5.40;4.00;;;;;4.57;81.34;101848.53;5092163;28;8830;-61
2023/01/23 10:52:11;;;;;;;;;3.40;2.60;;;;;4.62;81.42;101848.44;5092433;28;8893;-61
2023/01/23 10:54:39;;;;;;;;;4.20;3.80;;;;;4.63;81.27;101851.03;5091101;28;8927;-61
2023/01/23 10:57:07;;;;;;;;;15.40;12.20;;;;;4.58;81.63;101847.63;5091640;28;9120;-61
2023/01/23 10:59:35;;;;;;;;;9.40;9.00;;;;;4.49;81.36;101852.28;5091885;28;8870;-60
2023/01/23 11:02:03;;;;;;;;;10.00;9.00;;;;;4.40;81.20;101847.25;5091566;28;8841;-59
2023/01/23 11:04:32;;;;;;;;;9.60;7.00;;;;;4.31;81.85;101850.06;5092570;28;9544;-59
2023/01/23 11:07:00;;;;;;;;;8.60;8.60;;;;;4.24;81.39;101843.22;5092983;28;8868;-60
2023/01/23 11:09:29;;;;;;;;;9.00;9.00;;;;;4.19;81.63;101851.22;5093615;28;8874;-60
2023/01/23 11:11:57;;;;;;;;;6.60;6.40;;;;;4.14;82.02;101846.97;5093352;28;8899;-59
2023/01/23 11:14:26;;;;;;;;;9.00;9.00;;;;;4.08;82.29;101841.84;5085340;28;8841;-60
2023/01/23 11:16:54;;;;;;;;;3.80;3.80;;;;;4.01;82.34;101835.84;5090938;28;8842;-58
2023/01/23 11:19:22;;;;;;;;;10.80;7.80;;;;;3.95;82.02;101830.72;5090925;28;8860;-59
2023/01/23 11:21:50;;;;;;;;;9.00;6.80;;;;;3.89;82.29;101830.00;5091305;28;8838;-60
2023/01/23 11:24:18;;;;;;;;;12.40;10.80;;;;;3.87;82.47;101826.50;5093665;28;8957;-61
2023/01/23 11:27:00;;;;;;;;;7.80;7.00;;;;;3.85;82.06;101830.94;5092727;28;8972;-60
2023/01/23 11:29:29;;;;;;;;;10.40;9.20;;;;;3.80;82.49;101831.06;5091330;28;8830;-61
2023/01/23 11:31:57;;;;;;;;;9.40;7.80;;;;;3.80;82.35;101835.47;5092348;28;8857;-61
2023/01/23 11:34:25;;;;;;;;;10.80;8.60;;;;;3.77;82.28;101832.03;5092991;28;8858;-61
2023/01/23 11:36:53;;;;;;;;;9.80;9.40;;;;;3.73;82.78;101828.59;5093258;28;8849;-61
2023/01/23 11:39:21;;;;;;;;;9.40;9.40;;;;;3.71;82.34;101824.25;5093004;28;9131;-61
2023/01/23 11:41:50;;;;;;;;;6.80;6.00;;;;;3.69;83.02;101829.56;5093722;28;8846;-61
2023/01/23 11:44:18;;;;;;;;;13.00;10.00;;;;;3.66;82.70;101819.09;5092077;28;8892;-61
2023/01/23 11:46:49;;;;;;;;;10.80;9.40;;;;;3.63;82.59;101816.50;5092132;28;8952;-61
2023/01/23 11:49:16;;;;;;;;;8.20;6.40;;;;;3.61;82.95;101818.31;5091237;28;8825;-59
2023/01/23 11:51:44;;;;;;;;;12.40;11.20;;;;;3.61;82.39;101817.44;5091360;28;9543;-61